Time;durP1;ratioP1;P1;durP2;ratioP2;P2;SDS_P1;SDS_P2;PMS_P1;PMS_P2;Temp;Humidity;BMP_temperature;BMP_pressure;BME280_temperature;BME280_humidity;BME280_pressure;Samples;Min_cycle;Max_cycle;Signal;HPM_P1;HPM_P2
2023/07/22 00:00:15;;;;;;;2.30;1.75;;;;;;;;;;5905621;28;20147;-68
2023/07/22 00:03:06;;;;;;;3.67;2.08;;;;;;;;;;5904246;28;20422;-68
2023/07/22 00:06:09;;;;;;;2.53;1.70;;;;;;;;;;5907613;28;20078;-69
2023/07/22 00:09:00;;;;;;;3.00;1.98;;;;;;;;;;5907217;28;20175;-68
2023/07/22 00:11:51;;;;;;;3.72;2.10;;;;;;;;;;5906719;28;20051;-69
2023/07/22 00:14:42;;;;;;;6.00;2.30;;;;;;;;;;5906380;28;20044;-69
2023/07/22 00:17:33;;;;;;;3.97;2.40;;;;;;;;;;5905255;28;20051;-69
2023/07/22 00:20:25;;;;;;;5.40;2.40;;;;;;;;;;5906267;28;20138;-69
2023/07/22 00:23:17;;;;;;;6.13;2.05;;;;;;;;;;5906486;28;20507;-68
2023/07/22 00:26:09;;;;;;;4.43;2.10;;;;;;;;;;5905220;28;20048;-69
2023/07/22 00:29:00;;;;;;;6.63;2.65;;;;;;;;;;5906798;28;20474;-68
2023/07/22 00:31:50;;;;;;;4.18;2.45;;;;;;;;;;5904810;28;20101;-68
2023/07/22 00:34:41;;;;;;;3.85;2.40;;;;;;;;;;5905930;28;20048;-69
2023/07/22 00:37:32;;;;;;;2.92;2.03;;;;;;;;;;5905968;28;20040;-68
2023/07/22 00:40:23;;;;;;;3.17;1.98;;;;;;;;;;5906363;28;20049;-68
2023/07/22 00:43:14;;;;;;;3.15;2.10;;;;;;;;;;5906264;28;20080;-68
2023/07/22 00:46:05;;;;;;;6.05;2.45;;;;;;;;;;5906315;28;20112;-69
2023/07/22 00:48:56;;;;;;;4.78;2.42;;;;;;;;;;5906940;28;20064;-70
2023/07/22 00:51:47;;;;;;;3.28;2.22;;;;;;;;;;5906277;28;20044;-68
2023/07/22 00:54:37;;;;;;;4.47;2.58;;;;;;;;;;5905926;28;20407;-69
2023/07/22 00:57:28;;;;;;;4.60;2.50;;;;;;;;;;5904780;28;20048;-68
2023/07/22 01:00:19;;;;;;;5.97;2.22;;;;;;;;;;5905931;28;20133;-69
2023/07/22 01:03:10;;;;;;;2.70;2.30;;;;;;;;;;5908099;28;20055;-69
2023/07/22 01:06:02;;;;;;;4.30;2.25;;;;;;;;;;5914062;28;20056;-68
2023/07/22 01:08:53;;;;;;;7.00;2.30;;;;;;;;;;5913672;28;20045;-69
2023/07/22 01:11:43;;;;;;;3.55;2.08;;;;;;;;;;5911262;28;20044;-69
2023/07/22 01:14:36;;;;;;;5.57;2.55;;;;;;;;;;5913198;28;20154;-68
2023/07/22 01:17:27;;;;;;;3.53;2.20;;;;;;;;;;5911949;28;20060;-68
2023/07/22 01:20:20;;;;;;;3.08;2.20;;;;;;;;;;5911865;28;20068;-69
2023/07/22 01:23:11;;;;;;;2.92;1.88;;;;;;;;;;5912306;28;20055;-68
2023/07/22 01:26:03;;;;;;;3.65;2.22;;;;;;;;;;5912322;28;20421;-69
2023/07/22 01:29:04;;;;;;;3.33;2.50;;;;;;;;;;5913910;28;20056;-68
2023/07/22 01:31:55;;;;;;;5.50;2.95;;;;;;;;;;5912551;28;20048;-69
2023/07/22 01:34:46;;;;;;;3.33;2.25;;;;;;;;;;5909630;28;20840;-69
2023/07/22 01:37:37;;;;;;;5.60;2.50;;;;;;;;;;5911504;28;20053;-68
2023/07/22 01:40:28;;;;;;;4.97;2.50;;;;;;;;;;5912369;28;20047;-69
2023/07/22 01:43:19;;;;;;;4.22;2.42;;;;;;;;;;5913312;28;20067;-69
2023/07/22 01:46:09;;;;;;;3.92;2.58;;;;;;;;;;5913190;28;20063;-69
2023/07/22 01:49:01;;;;;;;5.40;2.80;;;;;;;;;;5913734;28;20052;-69
2023/07/22 01:51:52;;;;;;;3.53;2.58;;;;;;;;;;5913220;28;20058;-69
2023/07/22 01:54:43;;;;;;;5.95;2.83;;;;;;;;;;5912777;28;20131;-68
2023/07/22 01:57:34;;;;;;;4.45;2.78;;;;;;;;;;5911479;28;20036;-68
2023/07/22 02:00:26;;;;;;;6.65;3.10;;;;;;;;;;5912837;28;20082;-68
2023/07/22 02:03:17;;;;;;;3.92;2.47;;;;;;;;;;5913315;28;20045;-69
2023/07/22 02:06:08;;;;;;;4.75;2.35;;;;;;;;;;5913140;28;20067;-69
2023/07/22 02:08:59;;;;;;;4.50;2.50;;;;;;;;;;5913488;28;20648;-69
2023/07/22 02:11:50;;;;;;;4.30;2.70;;;;;;;;;;5913116;28;20040;-69
2023/07/22 02:14:41;;;;;;;5.72;2.40;;;;;;;;;;5911016;28;20062;-68
2023/07/22 02:17:31;;;;;;;5.70;3.28;;;;;;;;;;5909187;28;20554;-68
2023/07/22 02:20:22;;;;;;;5.95;2.72;;;;;;;;;;5908858;28;20051;-68
2023/07/22 02:23:13;;;;;;;3.13;2.70;;;;;;;;;;5909309;28;20064;-68
2023/07/22 02:26:04;;;;;;;3.95;2.50;;;;;;;;;;5908787;28;20047;-68
2023/07/22 02:28:55;;;;;;;5.47;3.25;;;;;;;;;;5908084;28;20536;-69
2023/07/22 02:31:46;;;;;;;4.85;2.67;;;;;;;;;;5908368;28;20060;-68
2023/07/22 02:34:37;;;;;;;12.75;3.10;;;;;;;;;;5908586;28;20040;-69
2023/07/22 02:37:28;;;;;;;4.90;3.40;;;;;;;;;;5908629;28;20079;-69
2023/07/22 02:40:19;;;;;;;7.72;3.08;;;;;;;;;;5907378;28;20049;-69
2023/07/22 02:43:10;;;;;;;9.48;2.92;;;;;;;;;;5908526;28;20155;-69
2023/07/22 02:46:03;;;;;;;5.05;2.72;;;;;;;;;;5909209;28;20545;-69
2023/07/22 02:48:55;;;;;;;6.10;3.58;;;;;;;;;;5908829;28;20109;-69
2023/07/22 02:51:46;;;;;;;5.32;3.50;;;;;;;;;;5908221;28;20045;-69
2023/07/22 02:54:41;;;;;;;5.65;3.45;;;;;;;;;;5908285;28;20044;-69
2023/07/22 02:57:32;;;;;;;8.48;4.20;;;;;;;;;;5906649;28;20081;-69
2023/07/22 03:00:25;;;;;;;6.80;4.00;;;;;;;;;;5907999;28;20483;-69
2023/07/22 03:03:16;;;;;;;10.40;4.50;;;;;;;;;;5908170;28;20056;-69
2023/07/22 03:06:09;;;;;;;10.48;4.32;;;;;;;;;;5907962;28;20059;-69
2023/07/22 03:09:00;;;;;;;6.03;3.97;;;;;;;;;;5907002;28;20045;-68
2023/07/22 03:11:51;;;;;;;9.98;4.68;;;;;;;;;;5906385;28;20051;-69
2023/07/22 03:14:42;;;;;;;8.75;4.35;;;;;;;;;;5907918;28;20040;-69
2023/07/22 03:17:33;;;;;;;8.52;4.18;;;;;;;;;;5908093;28;20047;-69
2023/07/22 03:20:24;;;;;;;14.65;4.78;;;;;;;;;;5906228;28;20040;-69
2023/07/22 03:23:15;;;;;;;9.57;4.60;;;;;;;;;;5907556;28;20044;-68
2023/07/22 03:26:06;;;;;;;6.90;3.97;;;;;;;;;;5906982;28;20190;-70
2023/07/22 03:28:57;;;;;;;10.95;4.50;;;;;;;;;;5907264;28;20143;-69
2023/07/22 03:31:48;;;;;;;10.40;4.63;;;;;;;;;;5905904;28;20045;-68
2023/07/22 03:34:38;;;;;;;9.98;4.40;;;;;;;;;;5907491;28;20049;-69
2023/07/22 03:37:29;;;;;;;5.65;3.80;;;;;;;;;;5907057;28;20049;-69
2023/07/22 03:40:21;;;;;;;9.20;4.80;;;;;;;;;;5907325;28;20048;-68
2023/07/22 03:43:12;;;;;;;6.53;4.35;;;;;;;;;;5906797;28;20052;-68
2023/07/22 03:46:03;;;;;;;8.77;4.00;;;;;;;;;;5907594;28;20422;-68
2023/07/22 03:48:54;;;;;;;13.23;4.70;;;;;;;;;;5907347;28;20052;-69
2023/07/22 03:51:44;;;;;;;12.80;4.05;;;;;;;;;;5907125;28;20181;-69
2023/07/22 03:54:35;;;;;;;6.40;4.10;;;;;;;;;;5905341;28;20079;-68
2023/07/22 03:57:27;;;;;;;7.72;4.30;;;;;;;;;;5906878;28;20048;-69
2023/07/22 04:00:20;;;;;;;6.97;4.20;;;;;;;;;;5905274;28;20163;-69
2023/07/22 04:03:11;;;;;;;6.68;4.53;;;;;;;;;;5905011;28;20423;-69
2023/07/22 04:06:02;;;;;;;8.18;4.18;;;;;;;;;;5906693;28;20102;-69
2023/07/22 04:08:52;;;;;;;9.25;4.72;;;;;;;;;;5907118;28;20052;-69
2023/07/22 04:11:43;;;;;;;9.23;4.80;;;;;;;;;;5906193;28;20165;-69
2023/07/22 04:14:34;;;;;;;9.95;4.50;;;;;;;;;;5906477;28;20515;-69
2023/07/22 04:17:25;;;;;;;8.73;4.82;;;;;;;;;;5906334;28;20051;-68
2023/07/22 04:20:16;;;;;;;7.93;5.00;;;;;;;;;;5906184;28;20426;-69
2023/07/22 04:23:07;;;;;;;8.45;4.82;;;;;;;;;;5906340;28;20060;-68
2023/07/22 04:25:58;;;;;;;8.10;5.05;;;;;;;;;;5906920;28;20055;-69
2023/07/22 04:28:49;;;;;;;11.73;5.80;;;;;;;;;;5906287;28;20056;-69
2023/07/22 04:31:40;;;;;;;15.90;5.85;;;;;;;;;;5905352;28;20060;-69
2023/07/22 04:34:31;;;;;;;8.82;6.07;;;;;;;;;;5905012;28;20056;-69
2023/07/22 04:37:22;;;;;;;13.07;6.65;;;;;;;;;;5905793;28;20048;-69
2023/07/22 04:40:17;;;;;;;10.65;5.90;;;;;;;;;;5904730;28;20055;-69
2023/07/22 04:43:08;;;;;;;9.80;6.32;;;;;;;;;;5904599;28;20063;-69
2023/07/22 04:45:59;;;;;;;13.93;6.97;;;;;;;;;;5906152;28;20044;-69
2023/07/22 04:48:50;;;;;;;13.80;6.32;;;;;;;;;;5906222;28;20116;-69
2023/07/22 04:51:41;;;;;;;11.18;6.07;;;;;;;;;;5905729;28;20053;-68
2023/07/22 04:54:32;;;;;;;10.07;5.57;;;;;;;;;;5905613;28;20503;-70
2023/07/22 04:57:22;;;;;;;9.45;5.80;;;;;;;;;;5905967;28;20059;-68
2023/07/22 05:00:16;;;;;;;6.78;5.22;;;;;;;;;;5905648;28;20162;-69
2023/07/22 05:03:06;;;;;;;12.82;5.60;;;;;;;;;;5906055;28;20053;-69
2023/07/22 05:05:58;;;;;;;9.70;6.07;;;;;;;;;;5906498;28;20044;-69
2023/07/22 05:08:48;;;;;;;7.88;5.30;;;;;;;;;;5905524;28;20047;-69
2023/07/22 05:11:39;;;;;;;13.07;5.78;;;;;;;;;;5905517;28;20047;-69
2023/07/22 05:14:30;;;;;;;12.65;5.50;;;;;;;;;;5905663;28;20499;-69
2023/07/22 05:17:21;;;;;;;7.30;5.10;;;;;;;;;;5905352;28;25713;-68
2023/07/22 05:20:12;;;;;;;9.93;5.55;;;;;;;;;;5905534;28;20806;-69
2023/07/22 05:23:03;;;;;;;8.10;5.30;;;;;;;;;;5904175;28;20048;-69
2023/07/22 05:25:54;;;;;;;7.75;5.00;;;;;;;;;;5905927;28;20048;-69
2023/07/22 05:28:45;;;;;;;8.52;5.35;;;;;;;;;;5905653;28;20212;-69
2023/07/22 05:31:36;;;;;;;7.10;5.57;;;;;;;;;;5905124;28;20044;-69
2023/07/22 05:34:28;;;;;;;7.50;5.22;;;;;;;;;;5904061;28;20063;-69
2023/07/22 05:37:18;;;;;;;7.57;5.28;;;;;;;;;;5905284;28;20056;-69
2023/07/22 05:40:10;;;;;;;9.63;5.82;;;;;;;;;;5905780;28;20494;-69
2023/07/22 05:43:01;;;;;;;8.48;4.80;;;;;;;;;;5906088;28;20044;-69
2023/07/22 05:45:51;;;;;;;7.85;5.60;;;;;;;;;;5905743;28;20057;-69
2023/07/22 05:48:42;;;;;;;7.63;5.72;;;;;;;;;;5905378;28;20036;-68
2023/07/22 05:51:33;;;;;;;8.55;4.88;;;;;;;;;;5906764;28;20495;-69
2023/07/22 05:54:24;;;;;;;9.65;5.10;;;;;;;;;;5909670;28;20062;-69
2023/07/22 05:57:14;;;;;;;12.40;4.75;;;;;;;;;;5909407;28;20052;-69
2023/07/22 06:00:08;;;;;;;7.13;4.53;;;;;;;;;;5909321;28;20101;-69
2023/07/22 06:03:00;;;;;;;6.85;4.90;;;;;;;;;;5910084;28;20052;-69
2023/07/22 06:05:51;;;;;;;7.07;3.85;;;;;;;;;;5907715;28;20052;-69
2023/07/22 06:08:41;;;;;;;13.05;4.70;;;;;;;;;;5909066;28;20135;-69
2023/07/22 06:11:32;;;;;;;4.97;3.65;;;;;;;;;;5908030;28;20412;-69
2023/07/22 06:14:23;;;;;;;9.07;3.28;;;;;;;;;;5909240;28;20054;-70
2023/07/22 06:17:14;;;;;;;7.93;3.85;;;;;;;;;;5909513;28;20052;-69
2023/07/22 06:20:06;;;;;;;4.35;2.95;;;;;;;;;;5909082;28;20055;-69
2023/07/22 06:22:57;;;;;;;5.93;2.90;;;;;;;;;;5909654;28;20056;-69
2023/07/22 06:25:47;;;;;;;5.05;2.78;;;;;;;;;;5908786;28;20052;-69
2023/07/22 06:28:38;;;;;;;8.02;3.15;;;;;;;;;;5908570;28;20068;-69
2023/07/22 06:31:30;;;;;;;4.43;2.80;;;;;;;;;;5908164;28;20052;-70
2023/07/22 06:34:21;;;;;;;3.47;2.30;;;;;;;;;;5908783;28;20048;-69
2023/07/22 06:37:12;;;;;;;5.03;2.30;;;;;;;;;;5908409;28;20049;-69
2023/07/22 06:40:04;;;;;;;3.05;1.92;;;;;;;;;;5908799;28;20052;-69
2023/07/22 06:42:54;;;;;;;3.58;2.17;;;;;;;;;;5907479;28;20154;-70
2023/07/22 06:45:45;;;;;;;3.85;2.10;;;;;;;;;;5908637;28;20052;-70
2023/07/22 06:48:36;;;;;;;2.20;1.90;;;;;;;;;;5908213;28;20043;-70
2023/07/22 06:51:27;;;;;;;2.85;1.80;;;;;;;;;;5908451;28;20048;-70
2023/07/22 06:54:19;;;;;;;1.80;1.60;;;;;;;;;;5908410;28;20135;-70
2023/07/22 06:57:10;;;;;;;4.65;1.65;;;;;;;;;;5908094;28;20072;-70
2023/07/22 07:00:00;;;;;;;3.13;1.60;;;;;;;;;;5908826;28;20407;-70
2023/07/22 07:02:51;;;;;;;1.63;1.02;;;;;;;;;;5908020;28;20508;-69
2023/07/22 07:05:42;;;;;;;3.40;1.23;;;;;;;;;;5907846;28;20049;-69
2023/07/22 07:08:33;;;;;;;1.58;1.10;;;;;;;;;;5907977;28;20044;-70
2023/07/22 07:11:23;;;;;;;2.40;1.58;;;;;;;;;;5907565;28;20063;-70
2023/07/22 07:14:14;;;;;;;1.75;1.45;;;;;;;;;;5908003;28;20057;-70
2023/07/22 07:17:05;;;;;;;2.60;1.55;;;;;;;;;;5907576;28;20060;-70
2023/07/22 07:19:56;;;;;;;4.88;1.60;;;;;;;;;;5908177;28;20052;-70
2023/07/22 07:22:47;;;;;;;6.10;1.95;;;;;;;;;;5907714;28;20510;-69
2023/07/22 07:25:38;;;;;;;3.10;1.50;;;;;;;;;;5907444;28;20059;-70
2023/07/22 07:28:28;;;;;;;3.35;1.77;;;;;;;;;;5907781;28;20044;-70
2023/07/22 07:31:19;;;;;;;2.63;1.60;;;;;;;;;;5907399;28;20057;-70
2023/07/22 07:34:10;;;;;;;3.53;1.52;;;;;;;;;;5907000;28;20060;-70
2023/07/22 07:37:02;;;;;;;7.30;1.27;;;;;;;;;;5907202;28;20044;-73
2023/07/22 07:39:53;;;;;;;4.13;2.35;;;;;;;;;;5907774;28;20390;-70
2023/07/22 07:42:44;;;;;;;2.85;1.98;;;;;;;;;;5903835;28;20049;-70
2023/07/22 07:45:38;;;;;;;3.78;1.80;;;;;;;;;;5905780;28;20474;-70
2023/07/22 07:48:29;;;;;;;2.65;1.65;;;;;;;;;;5904703;28;20040;-70
2023/07/22 07:51:23;;;;;;;3.75;1.73;;;;;;;;;;5906524;28;20387;-70
2023/07/22 07:54:14;;;;;;;3.92;1.40;;;;;;;;;;5904530;28;20079;-70
2023/07/22 07:57:06;;;;;;;3.35;1.27;;;;;;;;;;5909099;28;20048;-70
2023/07/22 07:59:56;;;;;;;3.72;2.10;;;;;;;;;;5930491;28;20371;-70
2023/07/22 08:02:47;;;;;;;8.02;2.30;;;;;;;;;;5921018;28;20045;-70
2023/07/22 08:05:39;;;;;;;4.55;2.28;;;;;;;;;;5904390;28;20304;-70
2023/07/22 08:08:30;;;;;;;3.42;1.40;;;;;;;;;;5905770;28;20044;-71
2023/07/22 08:11:21;;;;;;;2.83;1.05;;;;;;;;;;5904327;28;20063;-71
2023/07/22 08:14:12;;;;;;;2.20;1.20;;;;;;;;;;5904777;28;20522;-71
2023/07/22 08:17:03;;;;;;;5.80;1.00;;;;;;;;;;5905648;28;20055;-71
2023/07/22 08:19:54;;;;;;;1.02;0.65;;;;;;;;;;5905881;28;20140;-72
2023/07/22 08:22:45;;;;;;;7.50;1.60;;;;;;;;;;5899957;28;20059;-71
2023/07/22 08:25:36;;;;;;;2.15;0.80;;;;;;;;;;5905243;28;20051;-71
2023/07/22 08:28:27;;;;;;;0.98;0.80;;;;;;;;;;5905335;28;20041;-70
2023/07/22 08:31:18;;;;;;;1.10;0.90;;;;;;;;;;5905627;28;20052;-70
2023/07/22 08:34:09;;;;;;;2.30;1.10;;;;;;;;;;5905105;28;20056;-71
2023/07/22 08:36:59;;;;;;;1.23;0.70;;;;;;;;;;5905891;28;20139;-71
2023/07/22 08:39:50;;;;;;;1.42;0.90;;;;;;;;;;5905835;28;20045;-70
2023/07/22 08:42:41;;;;;;;3.45;1.55;;;;;;;;;;5905294;28;20178;-70
2023/07/22 08:45:36;;;;;;;2.53;1.48;;;;;;;;;;5922602;28;20414;-71
2023/07/22 08:48:32;;;;;;;1.67;0.95;;;;;;;;;;5912931;28;20090;-71
2023/07/22 08:51:24;;;;;;;4.00;1.65;;;;;;;;;;5903836;28;20094;-70
2023/07/22 08:54:16;;;;;;;6.78;1.40;;;;;;;;;;5903272;28;20048;-70
2023/07/22 08:57:09;;;;;;;3.50;1.92;;;;;;;;;;5903421;28;20233;-71
2023/07/22 09:00:00;;;;;;;3.05;1.20;;;;;;;;;;5903538;28;20048;-70
2023/07/22 09:02:53;;;;;;;2.90;1.67;;;;;;;;;;5902423;28;20056;-71
2023/07/22 09:05:45;;;;;;;1.92;1.17;;;;;;;;;;5903630;28;20554;-70
2023/07/22 09:08:36;;;;;;;1.50;1.00;;;;;;;;;;5902666;28;20055;-70
2023/07/22 09:11:27;;;;;;;2.75;1.10;;;;;;;;;;5903907;28;20464;-70
2023/07/22 09:14:19;;;;;;;1.45;1.00;;;;;;;;;;5902170;28;20060;-70
2023/07/22 09:17:27;;;;;;;1.00;0.80;;;;;;;;;;5903961;28;20059;-71
2023/07/22 09:20:20;;;;;;;1.95;1.02;;;;;;;;;;5904241;28;20525;-71
2023/07/22 09:23:11;;;;;;;5.85;0.95;;;;;;;;;;5902652;28;20467;-71
2023/07/22 09:26:12;;;;;;;6.28;0.70;;;;;;;;;;5906236;28;20502;-71
2023/07/22 09:29:04;;;;;;;1.67;0.65;;;;;;;;;;5908569;28;20044;-70
2023/07/22 09:31:55;;;;;;;4.28;0.70;;;;;;;;;;5908583;28;20048;-70
2023/07/22 09:34:55;;;;;;;1.17;0.75;;;;;;;;;;5890371;28;20055;-71
2023/07/22 09:37:46;;;;;;;2.20;0.90;;;;;;;;;;5906900;28;20048;-70
2023/07/22 09:40:41;;;;;;;2.45;1.00;;;;;;;;;;5907050;28;20064;-69
2023/07/22 09:43:36;;;;;;;0.95;0.77;;;;;;;;;;5908236;28;20315;-71
2023/07/22 09:46:33;;;;;;;1.05;0.75;;;;;;;;;;5906594;28;20053;-71
2023/07/22 09:49:26;;;;;;;1.00;0.75;;;;;;;;;;5906824;28;20051;-72
2023/07/22 09:52:17;;;;;;;0.90;0.80;;;;;;;;;;5907729;28;20049;-71
2023/07/22 09:55:08;;;;;;;0.90;0.77;;;;;;;;;;5907781;28;20122;-72
2023/07/22 09:58:02;;;;;;;1.42;0.73;;;;;;;;;;5908305;28;20056;-71
2023/07/22 10:00:53;;;;;;;4.70;2.25;;;;;;;;;;5895896;28;20064;-71
2023/07/22 10:03:46;;;;;;;1.30;0.57;;;;;;;;;;5905432;28;20116;-71
2023/07/22 10:06:39;;;;;;;1.02;0.60;;;;;;;;;;5903259;28;20044;-72
2023/07/22 10:09:31;;;;;;;1.35;0.90;;;;;;;;;;5906043;28;20071;-71
2023/07/22 10:12:23;;;;;;;1.38;0.82;;;;;;;;;;5905875;28;20049;-70
2023/07/22 10:15:16;;;;;;;1.33;0.75;;;;;;;;;;5907648;28;20063;-68
2023/07/22 10:18:08;;;;;;;4.85;0.98;;;;;;;;;;5907179;28;20530;-70
2023/07/22 10:21:00;;;;;;;0.80;0.73;;;;;;;;;;5890276;28;20052;-68
2023/07/22 10:23:52;;;;;;;2.03;1.05;;;;;;;;;;5901192;28;20056;-68
2023/07/22 10:26:43;;;;;;;2.03;0.82;;;;;;;;;;5905443;28;20044;-69
2023/07/22 10:29:38;;;;;;;1.50;0.80;;;;;;;;;;5905688;28;20047;-68
2023/07/22 10:32:41;;;;;;;1.00;0.70;;;;;;;;;;5907021;28;20492;-69
2023/07/22 10:35:33;;;;;;;1.55;0.70;;;;;;;;;;5906217;28;20090;-69
2023/07/22 10:38:25;;;;;;;2.25;0.70;;;;;;;;;;5908215;28;20045;-68
2023/07/22 10:41:17;;;;;;;1.85;1.00;;;;;;;;;;5906821;28;20063;-68
2023/07/22 10:44:10;;;;;;;6.18;0.77;;;;;;;;;;5906935;28;20502;-68
2023/07/22 10:47:01;;;;;;;1.98;1.30;;;;;;;;;;5898129;28;20052;-68
2023/07/22 10:49:51;;;;;;;3.70;1.00;;;;;;;;;;5895211;28;20041;-68
2023/07/22 10:52:47;;;;;;;4.40;1.63;;;;;;;;;;5894980;28;20049;-68
2023/07/22 10:56:18;;;;;;;1.63;0.80;;;;;;;;;;5896331;28;20068;-68
2023/07/22 10:59:12;;;;;;;5.10;1.17;;;;;;;;;;5897244;28;20064;-69
2023/07/22 11:02:07;;;;;;;0.90;0.63;;;;;;;;;;5885465;28;20053;-69
2023/07/22 11:04:59;;;;;;;1.58;0.80;;;;;;;;;;5881539;28;20116;-68
2023/07/22 11:07:51;;;;;;;2.08;1.00;;;;;;;;;;5883427;28;20063;-69
2023/07/22 11:10:55;;;;;;;1.88;0.98;;;;;;;;;;5890442;28;20101;-68
2023/07/22 11:13:46;;;;;;;6.45;1.10;;;;;;;;;;5907740;28;20044;-69
2023/07/22 11:16:37;;;;;;;1.98;0.93;;;;;;;;;;5907325;28;20036;-69
2023/07/22 11:19:28;;;;;;;5.53;0.95;;;;;;;;;;5906296;28;20179;-69
2023/07/22 11:22:19;;;;;;;1.13;0.80;;;;;;;;;;5907459;28;20143;-69
2023/07/22 11:25:17;;;;;;;2.72;0.90;;;;;;;;;;5905215;28;20048;-69
2023/07/22 11:28:08;;;;;;;1.30;0.70;;;;;;;;;;5904905;28;20647;-70
2023/07/22 11:31:00;;;;;;;3.20;0.93;;;;;;;;;;5907506;28;20059;-68
2023/07/22 11:33:51;;;;;;;2.10;1.08;;;;;;;;;;5905942;28;20491;-68
2023/07/22 11:36:43;;;;;;;1.55;0.60;;;;;;;;;;5906159;28;20139;-69
2023/07/22 11:39:36;;;;;;;5.80;0.80;;;;;;;;;;5905329;28;20058;-68
2023/07/22 11:42:26;;;;;;;2.00;1.00;;;;;;;;;;5906720;28;20423;-69
2023/07/22 11:45:17;;;;;;;1.13;0.82;;;;;;;;;;5906327;28;20040;-69
2023/07/22 11:48:12;;;;;;;1.10;0.90;;;;;;;;;;5905398;28;20055;-68
2023/07/22 11:51:03;;;;;;;1.63;0.70;;;;;;;;;;5905127;28;20410;-68
2023/07/22 11:53:54;;;;;;;2.78;1.20;;;;;;;;;;5905840;28;20045;-69
2023/07/22 11:56:46;;;;;;;2.90;0.90;;;;;;;;;;5905008;28;20150;-69
2023/07/22 11:59:47;;;;;;;2.47;0.77;;;;;;;;;;5906741;28;20048;-68
2023/07/22 12:02:38;;;;;;;2.65;0.82;;;;;;;;;;5905406;28;20051;-68
2023/07/22 12:05:28;;;;;;;1.60;0.77;;;;;;;;;;5907095;28;20099;-69
2023/07/22 12:08:19;;;;;;;2.92;1.23;;;;;;;;;;5906508;28;20052;-68
2023/07/22 12:11:19;;;;;;;4.10;1.05;;;;;;;;;;5905094;28;20052;-70
2023/07/22 12:14:13;;;;;;;2.00;1.08;;;;;;;;;;5902906;28;20052;-71
2023/07/22 12:17:09;;;;;;;3.67;1.02;;;;;;;;;;5881711;28;20059;-70
2023/07/22 12:19:59;;;;;;;2.20;1.02;;;;;;;;;;5903826;28;20053;-70
2023/07/22 12:22:50;;;;;;;6.28;1.55;;;;;;;;;;5905468;28;20062;-70
2023/07/22 12:25:41;;;;;;;2.58;1.55;;;;;;;;;;5905336;28;20387;-71
2023/07/22 12:28:32;;;;;;;4.60;1.45;;;;;;;;;;5905580;28;20527;-71
2023/07/22 12:31:23;;;;;;;2.20;1.10;;;;;;;;;;5903881;28;20049;-71
2023/07/22 12:34:13;;;;;;;2.65;1.05;;;;;;;;;;5920162;28;20046;-69
2023/07/22 12:37:05;;;;;;;1.77;0.80;;;;;;;;;;5905457;28;20214;-69
2023/07/22 12:39:58;;;;;;;1.63;0.80;;;;;;;;;;5886128;28;20072;-71
2023/07/22 12:42:49;;;;;;;5.28;0.95;;;;;;;;;;5886498;28;20049;-70
2023/07/22 12:45:40;;;;;;;1.40;0.80;;;;;;;;;;5902300;28;20086;-70
2023/07/22 12:48:30;;;;;;;1.65;0.75;;;;;;;;;;5890457;28;20041;-70
2023/07/22 12:51:21;;;;;;;1.25;0.80;;;;;;;;;;5903958;28;20840;-71
2023/07/22 12:54:12;;;;;;;3.80;1.10;;;;;;;;;;5903773;28;20515;-70
2023/07/22 12:57:04;;;;;;;2.50;1.10;;;;;;;;;;5905528;28;20048;-71
2023/07/22 12:59:55;;;;;;;0.95;0.80;;;;;;;;;;5905533;28;20044;-70
2023/07/22 13:02:46;;;;;;;1.10;0.85;;;;;;;;;;5905565;28;20784;-71
2023/07/22 13:05:37;;;;;;;2.05;1.02;;;;;;;;;;5905494;28;20044;-71
2023/07/22 13:08:28;;;;;;;1.85;1.17;;;;;;;;;;5903647;28;20052;-71
2023/07/22 13:11:18;;;;;;;4.82;1.10;;;;;;;;;;5892725;28;20040;-70
2023/07/22 13:14:09;;;;;;;9.98;1.10;;;;;;;;;;5888187;28;20045;-70
2023/07/22 13:17:00;;;;;;;2.03;0.80;;;;;;;;;;5884695;28;20543;-69
2023/07/22 13:19:51;;;;;;;2.80;1.00;;;;;;;;;;5902923;28;20544;-70
2023/07/22 13:22:41;;;;;;;3.25;1.13;;;;;;;;;;5902706;28;20043;-70
2023/07/22 13:25:32;;;;;;;2.85;0.95;;;;;;;;;;5904979;28;20407;-70
2023/07/22 13:28:23;;;;;;;2.33;1.00;;;;;;;;;;5904869;28;20045;-70
2023/07/22 13:31:14;;;;;;;1.73;1.00;;;;;;;;;;5892131;28;20048;-70
2023/07/22 13:34:04;;;;;;;2.33;1.35;;;;;;;;;;5893197;28;20045;-70
2023/07/22 13:36:55;;;;;;;4.07;1.17;;;;;;;;;;5892715;28;20045;-70
2023/07/22 13:39:46;;;;;;;2.17;1.10;;;;;;;;;;5889637;28;20045;-70
2023/07/22 13:42:38;;;;;;;1.40;1.10;;;;;;;;;;5903777;28;20047;-71
2023/07/22 13:45:28;;;;;;;4.68;1.33;;;;;;;;;;5887164;28;20459;-70
2023/07/22 13:48:19;;;;;;;4.95;1.27;;;;;;;;;;5891140;28;20403;-74
2023/07/22 13:51:10;;;;;;;3.13;1.40;;;;;;;;;;5899023;28;20048;-70
2023/07/22 13:54:01;;;;;;;6.07;1.35;;;;;;;;;;5886446;28;20068;-69
2023/07/22 13:56:51;;;;;;;2.63;0.93;;;;;;;;;;5893453;28;20377;-70
2023/07/22 13:59:42;;;;;;;2.05;1.17;;;;;;;;;;5893307;28;20045;-70
2023/07/22 14:02:33;;;;;;;1.48;1.00;;;;;;;;;;5893189;28;20049;-70
2023/07/22 14:05:26;;;;;;;3.90;1.00;;;;;;;;;;5891151;28;20052;-70
2023/07/22 14:08:17;;;;;;;5.50;1.00;;;;;;;;;;5903261;28;20084;-69
2023/07/22 14:11:08;;;;;;;11.52;1.23;;;;;;;;;;5892018;28;20407;-70
2023/07/22 14:13:59;;;;;;;4.00;1.27;;;;;;;;;;5905622;28;20044;-70
2023/07/22 14:16:49;;;;;;;6.22;1.25;;;;;;;;;;5897311;28;20403;-70
2023/07/22 14:19:41;;;;;;;1.60;0.90;;;;;;;;;;5890634;28;20041;-70
2023/07/22 14:22:33;;;;;;;1.88;1.15;;;;;;;;;;5885570;28;20051;-69
2023/07/22 14:25:24;;;;;;;1.25;0.95;;;;;;;;;;5907151;28;20757;-70
2023/07/22 14:28:15;;;;;;;2.22;1.30;;;;;;;;;;5908851;28;20412;-70
2023/07/22 14:31:05;;;;;;;6.15;1.25;;;;;;;;;;5891518;28;20079;-70
2023/07/22 14:33:56;;;;;;;2.80;0.98;;;;;;;;;;5888332;28;20049;-69
2023/07/22 14:36:47;;;;;;;1.85;1.33;;;;;;;;;;5909063;28;20465;-70
2023/07/22 14:39:38;;;;;;;3.78;0.90;;;;;;;;;;5888860;28;20045;-70
2023/07/22 14:42:29;;;;;;;2.10;1.00;;;;;;;;;;5894682;28;20044;-70
2023/07/22 14:45:20;;;;;;;2.28;1.20;;;;;;;;;;5896612;28;20049;-72
2023/07/22 14:48:11;;;;;;;1.73;1.25;;;;;;;;;;5894481;28;20056;-71
2023/07/22 14:51:02;;;;;;;3.47;1.00;;;;;;;;;;5895119;28;20106;-70
2023/07/22 14:53:52;;;;;;;1.13;0.98;;;;;;;;;;5894642;28;20055;-71
2023/07/22 14:56:43;;;;;;;1.95;1.00;;;;;;;;;;5899118;28;20046;-70
2023/07/22 14:59:34;;;;;;;1.60;1.27;;;;;;;;;;5897972;28;20147;-71
2023/07/22 15:02:25;;;;;;;3.08;1.10;;;;;;;;;;5884369;28;20056;-70
2023/07/22 15:05:16;;;;;;;2.97;1.25;;;;;;;;;;5886691;28;20133;-70
2023/07/22 15:08:06;;;;;;;6.50;1.33;;;;;;;;;;5890718;28;20041;-72
2023/07/22 15:10:57;;;;;;;1.60;1.02;;;;;;;;;;5898669;28;20052;-69
2023/07/22 15:13:48;;;;;;;5.28;1.20;;;;;;;;;;5898055;28;20037;-70
2023/07/22 15:16:40;;;;;;;1.10;0.90;;;;;;;;;;5892732;28;20052;-70
2023/07/22 15:19:31;;;;;;;6.30;1.80;;;;;;;;;;5893526;28;20484;-73
2023/07/22 15:22:22;;;;;;;2.53;1.52;;;;;;;;;;5890198;28;20523;-70
2023/07/22 15:25:13;;;;;;;1.65;1.08;;;;;;;;;;5892763;28;20051;-70
2023/07/22 15:28:04;;;;;;;1.92;1.38;;;;;;;;;;5899768;28;20056;-69
2023/07/22 15:30:55;;;;;;;4.78;1.10;;;;;;;;;;5893866;28;20052;-70
2023/07/22 15:33:46;;;;;;;5.03;1.80;;;;;;;;;;5894134;28;20044;-70
2023/07/22 15:36:36;;;;;;;11.05;1.40;;;;;;;;;;5896873;28;20037;-71
2023/07/22 15:39:27;;;;;;;2.70;1.02;;;;;;;;;;5890512;28;20055;-70
2023/07/22 15:42:18;;;;;;;1.55;1.23;;;;;;;;;;5893581;28;20463;-69
2023/07/22 15:45:10;;;;;;;3.08;1.20;;;;;;;;;;5893896;28;20049;-70
2023/07/22 15:48:02;;;;;;;2.75;1.13;;;;;;;;;;5895304;28;20048;-70
2023/07/22 15:50:55;;;;;;;5.28;1.80;;;;;;;;;;5910035;28;20048;-72
2023/07/22 15:53:46;;;;;;;3.42;1.20;;;;;;;;;;5893605;28;20097;-70
2023/07/22 15:56:37;;;;;;;1.50;1.10;;;;;;;;;;5894096;28;20037;-70
2023/07/22 15:59:28;;;;;;;2.08;1.30;;;;;;;;;;5894665;28;20049;-70
2023/07/22 16:02:18;;;;;;;1.90;1.33;;;;;;;;;;5894308;28;20356;-70
2023/07/22 16:05:10;;;;;;;2.45;1.30;;;;;;;;;;5893327;28;20504;-70
2023/07/22 16:08:12;;;;;;;1.73;1.10;;;;;;;;;;5895977;28;20049;-70
2023/07/22 16:11:03;;;;;;;2.28;1.40;;;;;;;;;;5892947;28;20049;-70
2023/07/22 16:13:54;;;;;;;1.15;0.85;;;;;;;;;;5894569;28;20058;-69
2023/07/22 16:16:45;;;;;;;1.52;1.17;;;;;;;;;;5897679;28;20067;-70
2023/07/22 16:19:36;;;;;;;3.22;1.63;;;;;;;;;;5901398;28;20037;-70
2023/07/22 16:22:27;;;;;;;5.53;1.65;;;;;;;;;;5904778;28;20120;-70
2023/07/22 16:25:18;;;;;;;1.45;1.15;;;;;;;;;;5899033;28;20051;-70
2023/07/22 16:28:09;;;;;;;3.05;1.23;;;;;;;;;;5904747;28;20082;-70
2023/07/22 16:30:59;;;;;;;1.95;1.20;;;;;;;;;;5905841;28;20068;-70
2023/07/22 16:33:50;;;;;;;3.60;1.40;;;;;;;;;;5904808;28;20579;-69
2023/07/22 16:36:41;;;;;;;2.10;1.30;;;;;;;;;;5903556;28;20056;-69
2023/07/22 16:39:32;;;;;;;2.08;1.10;;;;;;;;;;5904818;28;20052;-70
2023/07/22 16:42:23;;;;;;;2.33;1.20;;;;;;;;;;5905428;28;20808;-70
2023/07/22 16:45:13;;;;;;;2.17;1.33;;;;;;;;;;5902081;28;20044;-70
2023/07/22 16:48:04;;;;;;;4.80;1.40;;;;;;;;;;5897059;28;20045;-70
2023/07/22 16:50:55;;;;;;;2.40;1.23;;;;;;;;;;5897900;28;20384;-70
2023/07/22 16:53:46;;;;;;;4.40;1.80;;;;;;;;;;5904640;28;20061;-69
2023/07/22 16:56:37;;;;;;;2.53;1.50;;;;;;;;;;5903472;28;20629;-70
2023/07/22 16:59:28;;;;;;;5.35;1.85;;;;;;;;;;5901431;28;20044;-70
2023/07/22 17:02:19;;;;;;;2.10;1.30;;;;;;;;;;5904513;28;20051;-69
2023/07/22 17:05:09;;;;;;;2.08;1.48;;;;;;;;;;5888263;28;20051;-70
2023/07/22 17:08:01;;;;;;;4.80;2.35;;;;;;;;;;5900929;28;20052;-69